Hill AFB, Utah
Current Conditions -  °F | °C
As of 8:58 AM on Thursday 18 Dec 2014 (Local Time) from KHIF Reporting Station
Broken Clouds Broken Clouds  
Wind Chill: 22°   Ceiling: 15000
Heat Index: 30°   Visibility: 10mi
Dew Point: 27°   Wind: 9mph
Humidity: 87%   Direction: 120°ESE
Pressure: 30.13"   Gusts: NA
Location:  41.11°N, 112°W
Report Text: KHIF 181558Z 12008KT 10SM FEW045 SCT070 BKN150 M01/M03 A3013 RMK AO2A SLP214 T10091028
Loading
Personal Weather Stations






























Interactive Weather Map New forecast layout! Learn more

10-Day Weather Forecast

Advertisements
Track Severe Weather on mobile